Tahifet, Algeria
Current Conditions -  °F | °C
As of 3:30 AM on Wednesday 22 Oct 2014 (Local Time) from DAAT Reporting Station
Clear Clear  
Wind Chill: 59°   Ceiling: Unl
Heat Index: 59°   Visibility: 6mi
Dew Point: 28°   Wind: 6mph
Humidity: 31%   Direction: 70°ENE
Pressure: 30.15"   Gusts: NA
Location:  22.94°N, 6.01°E
Report Text: DAAT 220230Z 07005KT CAVOK 15/M02 Q1021
Loading
Personal Weather Stations






























Interactive Weather Map
Tropical Storm Tracking
New forecast layout! Learn more

10-Day Weather Forecast

Advertisements
Track Severe Weather on mobile